sensor_id;sensor_type;location;lat;lon;timestamp;pressure;altitude;pressure_sealevel;temperature;humidity
55289;BME280;41154;45.394;5.734;2023-05-22T00:02:10;96766.63;;;11.67;100.00
55289;BME280;41154;45.394;5.734;2023-05-22T00:04:36;96762.03;;;11.52;100.00
55289;BME280;41154;45.394;5.734;2023-05-22T00:07:01;96765.22;;;11.49;100.00
55289;BME280;41154;45.394;5.734;2023-05-22T00:09:28;96759.59;;;11.56;100.00
55289;BME280;41154;45.394;5.734;2023-05-22T00:11:53;96756.72;;;11.67;100.00
55289;BME280;41154;45.394;5.734;2023-05-22T00:14:19;96757.66;;;11.99;100.00
55289;BME280;41154;45.394;5.734;2023-05-22T00:16:45;96757.66;;;11.94;100.00
55289;BME280;41154;45.394;5.734;2023-05-22T00:19:12;96757.03;;;11.81;100.00
55289;BME280;41154;45.394;5.734;2023-05-22T00:21:44;96756.25;;;11.91;100.00
55289;BME280;41154;45.394;5.734;2023-05-22T00:24:11;96764.63;;;11.95;100.00
55289;BME280;41154;45.394;5.734;2023-05-22T00:26:36;96760.06;;;12.00;100.00
55289;BME280;41154;45.394;5.734;2023-05-22T00:29:02;96752.53;;;12.02;100.00
55289;BME280;41154;45.394;5.734;2023-05-22T00:31:30;96759.84;;;12.17;100.00
55289;BME280;41154;45.394;5.734;2023-05-22T00:33:57;96757.16;;;12.17;100.00
55289;BME280;41154;45.394;5.734;2023-05-22T00:36:23;96751.78;;;12.17;100.00
55289;BME280;41154;45.394;5.734;2023-05-22T00:38:49;96757.16;;;12.22;100.00
55289;BME280;41154;45.394;5.734;2023-05-22T00:41:15;96757.44;;;12.31;100.00
55289;BME280;41154;45.394;5.734;2023-05-22T00:43:41;96755.03;;;12.40;100.00
55289;BME280;41154;45.394;5.734;2023-05-22T00:46:07;96763.66;;;12.57;100.00
55289;BME280;41154;45.394;5.734;2023-05-22T00:48:33;96762.00;;;12.20;100.00
55289;BME280;41154;45.394;5.734;2023-05-22T00:50:59;96763.88;;;12.10;100.00
55289;BME280;41154;45.394;5.734;2023-05-22T00:53:27;96759.81;;;12.07;100.00
55289;BME280;41154;45.394;5.734;2023-05-22T00:55:56;96772.19;;;12.03;100.00
55289;BME280;41154;45.394;5.734;2023-05-22T00:58:25;96764.66;;;12.15;100.00
55289;BME280;41154;45.394;5.734;2023-05-22T01:00:51;96763.59;;;12.06;100.00
55289;BME280;41154;45.394;5.734;2023-05-22T01:03:17;96766.28;;;12.16;100.00
55289;BME280;41154;45.394;5.734;2023-05-22T01:05:50;96759.81;;;12.12;100.00
55289;BME280;41154;45.394;5.734;2023-05-22T01:08:17;96757.91;;;12.02;100.00
55289;BME280;41154;45.394;5.734;2023-05-22T01:10:43;96764.88;;;11.93;100.00
55289;BME280;41154;45.394;5.734;2023-05-22T01:16:29;96767.78;;;11.86;100.00
55289;BME280;41154;45.394;5.734;2023-05-22T01:21:51;96754.97;;;12.04;100.00
55289;BME280;41154;45.394;5.734;2023-05-22T01:24:57;96756.03;;;11.93;100.00
55289;BME280;41154;45.394;5.734;2023-05-22T01:28:01;96750.66;;;11.93;100.00
55289;BME280;41154;45.394;5.734;2023-05-22T01:33:02;96745.72;;;11.79;100.00
55289;BME280;41154;45.394;5.734;2023-05-22T01:35:32;96752.19;;;11.78;100.00
55289;BME280;41154;45.394;5.734;2023-05-22T01:37:59;96746.31;;;11.92;100.00
55289;BME280;41154;45.394;5.734;2023-05-22T01:40:26;96743.34;;;11.88;100.00
55289;BME280;41154;45.394;5.734;2023-05-22T01:42:52;96752.72;;;11.85;100.00
55289;BME280;41154;45.394;5.734;2023-05-22T01:45:20;96753.75;;;11.69;100.00
55289;BME280;41154;45.394;5.734;2023-05-22T01:47:45;96752.13;;;11.63;100.00
55289;BME280;41154;45.394;5.734;2023-05-22T01:50:14;96748.66;;;11.73;100.00
55289;BME280;41154;45.394;5.734;2023-05-22T01:55:45;96756.72;;;11.67;100.00
55289;BME280;41154;45.394;5.734;2023-05-22T02:00:55;96752.13;;;11.68;100.00
55289;BME280;41154;45.394;5.734;2023-05-22T02:03:30;96753.75;;;11.69;100.00
55289;BME280;41154;45.394;5.734;2023-05-22T02:05:59;96755.94;;;11.72;100.00
55289;BME280;41154;45.394;5.734;2023-05-22T02:08:26;96750.13;;;11.96;100.00
55289;BME280;41154;45.394;5.734;2023-05-22T02:10:55;96759.16;;;11.79;100.00
55289;BME280;41154;45.394;5.734;2023-05-22T02:13:22;96751.06;;;11.69;100.00
55289;BME280;41154;45.394;5.734;2023-05-22T02:15:49;96748.34;;;11.64;100.00
55289;BME280;41154;45.394;5.734;2023-05-22T02:18:15;96750.81;;;11.76;100.00
55289;BME280;41154;45.394;5.734;2023-05-22T02:20:42;96748.34;;;11.64;100.00
55289;BME280;41154;45.394;5.734;2023-05-22T02:23:10;96757.50;;;11.58;100.00
55289;BME280;41154;45.394;5.734;2023-05-22T02:25:35;96749.13;;;11.54;100.00
55289;BME280;41154;45.394;5.734;2023-05-22T02:28:01;96753.16;;;11.51;100.00
55289;BME280;41154;45.394;5.734;2023-05-22T02:30:27;96749.91;;;11.49;100.00
55289;BME280;41154;45.394;5.734;2023-05-22T02:32:54;96750.69;;;11.45;100.00
55289;BME280;41154;45.394;5.734;2023-05-22T02:35:22;96757.38;;;11.37;100.00
55289;BME280;41154;45.394;5.734;2023-05-22T02:37:50;96750.34;;;11.31;100.00
55289;BME280;41154;45.394;5.734;2023-05-22T02:40:16;96748.50;;;11.31;100.00
55289;BME280;41154;45.394;5.734;2023-05-22T02:42:42;96746.59;;;11.32;100.00
55289;BME280;41154;45.394;5.734;2023-05-22T02:45:09;96738.28;;;11.28;100.00
55289;BME280;41154;45.394;5.734;2023-05-22T02:47:35;96741.25;;;11.32;100.00
55289;BME280;41154;45.394;5.734;2023-05-22T02:50:00;96739.63;;;11.31;100.00
55289;BME280;41154;45.394;5.734;2023-05-22T02:52:26;96739.31;;;11.22;100.00
55289;BME280;41154;45.394;5.734;2023-05-22T02:54:52;96740.91;;;11.23;100.00
55289;BME280;41154;45.394;5.734;2023-05-22T02:57:19;96742.44;;;11.09;100.00
55289;BME280;41154;45.394;5.734;2023-05-22T02:59:46;96738.97;;;11.08;100.00
55289;BME280;41154;45.394;5.734;2023-05-22T03:02:12;96735.88;;;11.32;100.00
55289;BME280;41154;45.394;5.734;2023-05-22T03:04:40;96738.06;;;11.40;100.00
55289;BME280;41154;45.394;5.734;2023-05-22T03:07:07;96730.22;;;11.28;100.00
55289;BME280;41154;45.394;5.734;2023-05-22T03:09:33;96738.81;;;11.25;100.00
55289;BME280;41154;45.394;5.734;2023-05-22T03:12:00;96735.28;;;11.20;100.00
55289;BME280;41154;45.394;5.734;2023-05-22T03:14:26;96728.59;;;11.22;100.00
55289;BME280;41154;45.394;5.734;2023-05-22T03:16:53;96726.63;;;11.12;100.00
55289;BME280;41154;45.394;5.734;2023-05-22T03:19:21;96735.19;;;11.09;100.00
55289;BME280;41154;45.394;5.734;2023-05-22T03:21:47;96730.34;;;11.06;100.00
55289;BME280;41154;45.394;5.734;2023-05-22T03:24:14;96735.34;;;11.30;100.00
55289;BME280;41154;45.394;5.734;2023-05-22T03:26:40;96734.38;;;11.04;100.00
55289;BME280;41154;45.394;5.734;2023-05-22T03:29:10;96728.41;;;10.91;100.00
55289;BME280;41154;45.394;5.734;2023-05-22T03:31:39;96730.06;;;11.03;100.00
55289;BME280;41154;45.394;5.734;2023-05-22T03:34:09;96739.22;;;11.07;100.00
55289;BME280;41154;45.394;5.734;2023-05-22T03:36:36;96731.72;;;11.09;100.00
55289;BME280;41154;45.394;5.734;2023-05-22T03:39:03;96723.94;;;11.12;100.00
55289;BME280;41154;45.394;5.734;2023-05-22T03:41:31;96730.34;;;11.06;100.00
55289;BME280;41154;45.394;5.734;2023-05-22T03:43:57;96732.78;;;11.08;100.00
55289;BME280;41154;45.394;5.734;2023-05-22T03:46:24;96726.59;;;11.07;100.00
55289;BME280;41154;45.394;5.734;2023-05-22T03:48:51;96732.50;;;11.04;100.00
55289;BME280;41154;45.394;5.734;2023-05-22T03:51:17;96727.09;;;10.99;100.00
55289;BME280;41154;45.394;5.734;2023-05-22T03:53:42;96736.22;;;10.98;100.00
55289;BME280;41154;45.394;5.734;2023-05-22T03:56:08;96722.84;;;11.03;100.00
55289;BME280;41154;45.394;5.734;2023-05-22T03:58:34;96729.44;;;10.90;100.00
55289;BME280;41154;45.394;5.734;2023-05-22T04:01:00;96727.63;;;10.96;100.00
55289;BME280;41154;45.394;5.734;2023-05-22T04:03:26;96732.88;;;10.81;100.00
55289;BME280;41154;45.394;5.734;2023-05-22T04:05:52;96725.84;;;11.12;100.00
55289;BME280;41154;45.394;5.734;2023-05-22T04:08:18;96726.69;;;11.18;100.00
55289;BME280;41154;45.394;5.734;2023-05-22T04:10:44;96732.19;;;10.95;100.00
55289;BME280;41154;45.394;5.734;2023-05-22T04:13:14;96732.22;;;11.01;100.00
55289;BME280;41154;45.394;5.734;2023-05-22T04:15:40;96737.22;;;10.87;100.00
55289;BME280;41154;45.394;5.734;2023-05-22T04:18:07;96748.69;;;10.77;100.00
55289;BME280;41154;45.394;5.734;2023-05-22T04:20:33;96739.66;;;10.88;100.00
55289;BME280;41154;45.394;5.734;2023-05-22T04:22:59;96735.38;;;10.92;100.00
55289;BME280;41154;45.394;5.734;2023-05-22T04:25:26;96744.22;;;10.88;100.00
55289;BME280;41154;45.394;5.734;2023-05-22T04:27:51;96744.22;;;10.88;100.00
55289;BME280;41154;45.394;5.734;2023-05-22T04:30:18;96744.50;;;10.91;100.00
55289;BME280;41154;45.394;5.734;2023-05-22T04:32:44;96744.78;;;10.95;100.00
55289;BME280;41154;45.394;5.734;2023-05-22T04:35:10;96744.34;;;11.08;100.00
55289;BME280;41154;45.394;5.734;2023-05-22T04:37:39;96754.56;;;11.11;100.00
55289;BME280;41154;45.394;5.734;2023-05-22T04:40:07;96743.81;;;11.11;100.00
55289;BME280;41154;45.394;5.734;2023-05-22T04:42:34;96746.75;;;11.10;100.00
55289;BME280;41154;45.394;5.734;2023-05-22T04:45:03;96741.56;;;10.93;100.00
55289;BME280;41154;45.394;5.734;2023-05-22T04:47:29;96746.31;;;10.86;100.00
55289;BME280;41154;45.394;5.734;2023-05-22T04:49:57;96746.31;;;10.86;100.00
55289;BME280;41154;45.394;5.734;2023-05-22T04:52:23;96745.28;;;10.87;100.00
55289;BME280;41154;45.394;5.734;2023-05-22T04:54:49;96749.59;;;10.88;100.00
55289;BME280;41154;45.394;5.734;2023-05-22T04:57:20;96752.94;;;10.73;100.00
55289;BME280;41154;45.394;5.734;2023-05-22T04:59:47;96747.66;;;10.83;100.00
55289;BME280;41154;45.394;5.734;2023-05-22T05:02:13;96760.44;;;11.08;100.00
55289;BME280;41154;45.394;5.734;2023-05-22T05:04:40;96755.69;;;11.21;100.00
55289;BME280;41154;45.394;5.734;2023-05-22T05:07:05;96753.09;;;11.41;100.00
55289;BME280;41154;45.394;5.734;2023-05-22T05:09:32;96747.28;;;11.55;100.00
55289;BME280;41154;45.394;5.734;2023-05-22T05:11:58;96764.22;;;11.65;100.00
55289;BME280;41154;45.394;5.734;2023-05-22T05:14:24;96769.94;;;11.84;100.00
55289;BME280;41154;45.394;5.734;2023-05-22T05:16:50;96763.75;;;11.84;100.00
55289;BME280;41154;45.394;5.734;2023-05-22T05:19:17;96763.66;;;12.42;100.00
55289;BME280;41154;45.394;5.734;2023-05-22T05:21:46;96759.59;;;12.24;100.00
55289;BME280;41154;45.394;5.734;2023-05-22T05:24:17;96759.63;;;12.50;100.00
55289;BME280;41154;45.394;5.734;2023-05-22T05:26:44;96751.28;;;12.72;100.00
55289;BME280;41154;45.394;5.734;2023-05-22T05:29:10;96766.34;;;12.52;100.00
55289;BME280;41154;45.394;5.734;2023-05-22T05:31:44;96757.72;;;12.86;100.00
55289;BME280;41154;45.394;5.734;2023-05-22T05:34:29;96766.59;;;12.97;100.00
55289;BME280;41154;45.394;5.734;2023-05-22T05:36:59;96762.56;;;13.00;100.00
55289;BME280;41154;45.394;5.734;2023-05-22T05:39:26;96754.50;;;13.00;100.00
55289;BME280;41154;45.394;5.734;2023-05-22T05:41:51;96761.44;;;13.42;100.00
55289;BME280;41154;45.394;5.734;2023-05-22T05:44:17;96769.53;;;14.02;100.00
55289;BME280;41154;45.394;5.734;2023-05-22T05:46:43;96761.69;;;14.11;100.00
55289;BME280;41154;45.394;5.734;2023-05-22T05:49:10;96760.47;;;16.03;100.00
55289;BME280;41154;45.394;5.734;2023-05-22T05:51:38;96758.47;;;16.47;100.00
55289;BME280;41154;45.394;5.734;2023-05-22T05:54:04;96759.56;;;15.40;100.00
55289;BME280;41154;45.394;5.734;2023-05-22T05:56:30;96756.66;;;14.38;100.00
55289;BME280;41154;45.394;5.734;2023-05-22T05:58:56;96759.66;;;14.32;100.00
55289;BME280;41154;45.394;5.734;2023-05-22T06:01:51;96762.44;;;15.73;100.00
55289;BME280;41154;45.394;5.734;2023-05-22T06:04:25;96769.63;;;16.26;100.00
55289;BME280;41154;45.394;5.734;2023-05-22T06:06:52;96769.09;;;16.43;100.00
55289;BME280;41154;45.394;5.734;2023-05-22T06:09:37;96778.78;;;15.87;100.00
55289;BME280;41154;45.394;5.734;2023-05-22T06:12:15;96777.03;;;17.24;100.00
55289;BME280;41154;45.394;5.734;2023-05-22T06:14:44;96773.34;;;17.62;100.00
55289;BME280;41154;45.394;5.734;2023-05-22T06:17:10;96777.97;;;18.54;100.00
55289;BME280;41154;45.394;5.734;2023-05-22T06:19:38;96776.31;;;18.66;100.00
55289;BME280;41154;45.394;5.734;2023-05-22T06:22:04;96769.53;;;19.23;100.00
55289;BME280;41154;45.394;5.734;2023-05-22T06:24:30;96771.69;;;20.68;100.00
55289;BME280;41154;45.394;5.734;2023-05-22T06:27:00;96784.03;;;20.82;100.00
55289;BME280;41154;45.394;5.734;2023-05-22T06:29:27;96775.97;;;21.77;100.00
55289;BME280;41154;45.394;5.734;2023-05-22T06:31:56;96781.22;;;21.82;100.00
55289;BME280;41154;45.394;5.734;2023-05-22T06:34:21;96778.13;;;22.22;100.00
55289;BME280;41154;45.394;5.734;2023-05-22T06:36:48;96783.72;;;21.96;100.00
55289;BME280;41154;45.394;5.734;2023-05-22T06:39:21;96782.50;;;22.44;100.00
55289;BME280;41154;45.394;5.734;2023-05-22T06:41:59;96782.13;;;22.88;100.00
55289;BME280;41154;45.394;5.734;2023-05-22T06:44:25;96782.34;;;22.62;100.00
55289;BME280;41154;45.394;5.734;2023-05-22T06:46:54;96781.94;;;23.97;96.14
55289;BME280;41154;45.394;5.734;2023-05-22T06:49:23;96780.97;;;23.44;97.21
55289;BME280;41154;45.394;5.734;2023-05-22T06:51:51;96777.34;;;22.85;100.00
55289;BME280;41154;45.394;5.734;2023-05-22T06:54:17;96778.06;;;23.86;95.63
55289;BME280;41154;45.394;5.734;2023-05-22T06:56:47;96783.97;;;23.76;96.67
55289;BME280;41154;45.394;5.734;2023-05-22T06:59:15;96783.22;;;24.00;93.20
55289;BME280;41154;45.394;5.734;2023-05-22T07:02:19;96778.38;;;23.72;94.57
55289;BME280;41154;45.394;5.734;2023-05-22T07:05:03;96779.66;;;23.87;93.92
55289;BME280;41154;45.394;5.734;2023-05-22T07:07:35;96774.94;;;24.77;86.21
55289;BME280;41154;45.394;5.734;2023-05-22T07:10:02;96769.59;;;24.28;87.32
55289;BME280;41154;45.394;5.734;2023-05-22T07:12:28;96773.38;;;25.33;82.61
55289;BME280;41154;45.394;5.734;2023-05-22T07:14:54;96772.72;;;26.35;77.66
55289;BME280;41154;45.394;5.734;2023-05-22T07:17:23;96783.38;;;25.13;82.90
55289;BME280;41154;45.394;5.734;2023-05-22T07:19:50;96782.66;;;26.60;77.64
55289;BME280;41154;45.394;5.734;2023-05-22T07:22:15;96786.84;;;27.97;71.46
55289;BME280;41154;45.394;5.734;2023-05-22T07:24:43;96782.75;;;30.25;59.32
55289;BME280;41154;45.394;5.734;2023-05-22T07:27:10;96786.06;;;27.51;68.89
55289;BME280;41154;45.394;5.734;2023-05-22T07:29:37;96792.66;;;27.69;71.47
55289;BME280;41154;45.394;5.734;2023-05-22T07:32:04;96790.38;;;27.09;71.39
55289;BME280;41154;45.394;5.734;2023-05-22T07:34:30;96781.09;;;26.78;74.19
55289;BME280;41154;45.394;5.734;2023-05-22T07:37:06;96789.56;;;28.21;70.83
55289;BME280;41154;45.394;5.734;2023-05-22T07:39:33;96796.75;;;26.74;75.53
55289;BME280;41154;45.394;5.734;2023-05-22T07:41:59;96798.75;;;27.36;75.55
55289;BME280;41154;45.394;5.734;2023-05-22T07:44:25;96790.31;;;27.94;68.76
55289;BME280;41154;45.394;5.734;2023-05-22T07:46:51;96785.09;;;28.12;70.12
55289;BME280;41154;45.394;5.734;2023-05-22T07:49:20;96791.09;;;27.25;70.18
55289;BME280;41154;45.394;5.734;2023-05-22T07:51:49;96789.22;;;28.22;68.27
55289;BME280;41154;45.394;5.734;2023-05-22T07:54:15;96790.94;;;27.84;72.09
55289;BME280;41154;45.394;5.734;2023-05-22T07:56:45;96789.91;;;27.46;70.03
55289;BME280;41154;45.394;5.734;2023-05-22T07:59:15;96790.25;;;27.25;68.46
55289;BME280;41154;45.394;5.734;2023-05-22T08:01:43;96786.97;;;29.60;60.41
55289;BME280;41154;45.394;5.734;2023-05-22T08:04:09;96789.72;;;29.60;58.13
55289;BME280;41154;45.394;5.734;2023-05-22T08:06:35;96792.84;;;27.80;64.66
55289;BME280;41154;45.394;5.734;2023-05-22T08:09:01;96791.59;;;26.92;66.87
55289;BME280;41154;45.394;5.734;2023-05-22T08:11:29;96792.56;;;26.80;69.94
55289;BME280;41154;45.394;5.734;2023-05-22T08:13:55;96786.44;;;28.22;67.79
55289;BME280;41154;45.394;5.734;2023-05-22T08:16:21;96782.06;;;29.09;62.06
55289;BME280;41154;45.394;5.734;2023-05-22T08:18:47;96782.72;;;28.64;62.84
55289;BME280;41154;45.394;5.734;2023-05-22T08:21:13;96778.34;;;28.33;62.46
55289;BME280;41154;45.394;5.734;2023-05-22T08:23:39;96776.63;;;32.03;51.00
55289;BME280;41154;45.394;5.734;2023-05-22T08:26:05;96768.16;;;30.25;54.30
55289;BME280;41154;45.394;5.734;2023-05-22T08:28:33;96771.69;;;28.38;57.67
55289;BME280;41154;45.394;5.734;2023-05-22T08:30:58;96772.09;;;27.40;60.05
55289;BME280;41154;45.394;5.734;2023-05-22T08:33:24;96772.19;;;27.47;61.83
55289;BME280;41154;45.394;5.734;2023-05-22T08:35:51;96765.63;;;28.55;62.86
55289;BME280;41154;45.394;5.734;2023-05-22T08:38:16;96768.25;;;30.43;56.47
55289;BME280;41154;45.394;5.734;2023-05-22T08:40:44;96762.22;;;29.33;60.35
55289;BME280;41154;45.394;5.734;2023-05-22T08:43:11;96768.88;;;28.95;57.91
55289;BME280;41154;45.394;5.734;2023-05-22T08:45:37;96766.44;;;28.86;56.94
55289;BME280;41154;45.394;5.734;2023-05-22T08:48:11;96763.78;;;30.27;57.76
55289;BME280;41154;45.394;5.734;2023-05-22T08:50:40;96768.91;;;28.98;58.52
55289;BME280;41154;45.394;5.734;2023-05-22T08:53:07;96768.88;;;26.60;68.85
55289;BME280;41154;45.394;5.734;2023-05-22T08:55:36;96765.72;;;26.22;69.22
55289;BME280;41154;45.394;5.734;2023-05-22T08:58:03;96769.06;;;28.75;62.71
55289;BME280;41154;45.394;5.734;2023-05-22T09:00:29;96764.03;;;28.54;63.64
55289;BME280;41154;45.394;5.734;2023-05-22T09:02:56;96762.94;;;30.20;58.93
55289;BME280;41154;45.394;5.734;2023-05-22T09:05:22;96773.00;;;29.46;57.28
55289;BME280;41154;45.394;5.734;2023-05-22T09:07:55;96767.88;;;30.44;53.98
55289;BME280;41154;45.394;5.734;2023-05-22T09:10:21;96775.34;;;31.17;51.07
55289;BME280;41154;45.394;5.734;2023-05-22T09:13:04;96765.84;;;31.26;51.90
55289;BME280;41154;45.394;5.734;2023-05-22T09:15:32;96780.19;;;29.54;55.19
55289;BME280;41154;45.394;5.734;2023-05-22T09:17:59;96776.31;;;30.07;60.01
55289;BME280;41154;45.394;5.734;2023-05-22T09:20:25;96780.75;;;29.70;62.82
55289;BME280;41154;45.394;5.734;2023-05-22T09:22:51;96774.91;;;30.31;56.73
55289;BME280;41154;45.394;5.734;2023-05-22T09:25:17;96776.31;;;30.10;56.09
55289;BME280;41154;45.394;5.734;2023-05-22T09:27:45;96776.00;;;30.23;54.51
55289;BME280;41154;45.394;5.734;2023-05-22T09:30:14;96776.88;;;27.43;62.11
55289;BME280;41154;45.394;5.734;2023-05-22T09:32:41;96770.94;;;28.14;62.74
55289;BME280;41154;45.394;5.734;2023-05-22T09:35:07;96768.22;;;26.11;70.82
55289;BME280;41154;45.394;5.734;2023-05-22T09:37:34;96764.59;;;26.78;69.17
55289;BME280;41154;45.394;5.734;2023-05-22T09:40:04;96776.16;;;25.21;75.43
55289;BME280;41154;45.394;5.734;2023-05-22T09:42:34;96766.72;;;25.34;81.77
55289;BME280;41154;45.394;5.734;2023-05-22T09:45:06;96769.22;;;25.11;77.18
55289;BME280;41154;45.394;5.734;2023-05-22T09:47:33;96759.75;;;25.53;81.25
55289;BME280;41154;45.394;5.734;2023-05-22T09:50:00;96759.50;;;24.57;81.15
55289;BME280;41154;45.394;5.734;2023-05-22T09:52:32;96761.84;;;24.71;85.63
55289;BME280;41154;45.394;5.734;2023-05-22T09:55:03;96755.84;;;25.86;89.61
55289;BME280;41154;45.394;5.734;2023-05-22T09:57:30;96754.16;;;25.33;81.97
55289;BME280;41154;45.394;5.734;2023-05-22T09:59:58;96747.56;;;26.17;77.63
55289;BME280;41154;45.394;5.734;2023-05-22T10:02:26;96751.94;;;26.38;76.37
55289;BME280;41154;45.394;5.734;2023-05-22T10:04:52;96751.72;;;24.87;88.67
55289;BME280;41154;45.394;5.734;2023-05-22T10:07:24;96755.84;;;25.70;88.70
55289;BME280;41154;45.394;5.734;2023-05-22T10:10:03;96750.69;;;26.00;83.69
55289;BME280;41154;45.394;5.734;2023-05-22T10:12:32;96754.34;;;25.40;86.11
55289;BME280;41154;45.394;5.734;2023-05-22T10:15:00;96751.47;;;23.99;86.46
55289;BME280;41154;45.394;5.734;2023-05-22T10:17:27;96752.22;;;24.24;91.78
55289;BME280;41154;45.394;5.734;2023-05-22T10:19:55;96761.91;;;23.47;90.84
55289;BME280;41154;45.394;5.734;2023-05-22T10:22:22;96752.31;;;23.29;92.32
55289;BME280;41154;45.394;5.734;2023-05-22T10:24:50;96749.25;;;23.43;96.45
55289;BME280;41154;45.394;5.734;2023-05-22T10:27:17;96753.75;;;23.84;90.61
55289;BME280;41154;45.394;5.734;2023-05-22T10:30:09;96757.19;;;23.11;93.87
55289;BME280;41154;45.394;5.734;2023-05-22T10:35:46;96753.25;;;23.45;91.74
55289;BME280;41154;45.394;5.734;2023-05-22T10:40:56;96754.66;;;24.01;91.83
55289;BME280;41154;45.394;5.734;2023-05-22T10:43:22;96749.97;;;23.06;95.38
55289;BME280;41154;45.394;5.734;2023-05-22T10:45:48;96746.44;;;24.54;90.09
55289;BME280;41154;45.394;5.734;2023-05-22T10:48:14;96742.09;;;25.86;88.78
55289;BME280;41154;45.394;5.734;2023-05-22T10:50:49;96745.97;;;26.91;79.76
55289;BME280;41154;45.394;5.734;2023-05-22T10:53:19;96746.88;;;26.76;81.64
55289;BME280;41154;45.394;5.734;2023-05-22T10:55:49;96740.00;;;25.03;84.92
55289;BME280;41154;45.394;5.734;2023-05-22T10:58:16;96739.28;;;25.34;85.76
55289;BME280;41154;45.394;5.734;2023-05-22T11:00:45;96742.19;;;24.28;88.92
55289;BME280;41154;45.394;5.734;2023-05-22T11:03:11;96740.16;;;24.53;91.91
55289;BME280;41154;45.394;5.734;2023-05-22T11:05:37;96745.38;;;24.18;92.96
55289;BME280;41154;45.394;5.734;2023-05-22T11:08:10;96738.72;;;24.44;84.92
55289;BME280;41154;45.394;5.734;2023-05-22T11:10:55;96732.06;;;25.14;87.94
55289;BME280;41154;45.394;5.734;2023-05-22T11:13:26;96729.50;;;25.37;81.56
55289;BME280;41154;45.394;5.734;2023-05-22T11:15:54;96733.44;;;24.51;89.90
55289;BME280;41154;45.394;5.734;2023-05-22T11:18:23;96732.19;;;24.48;80.46
55289;BME280;41154;45.394;5.734;2023-05-22T11:20:52;96729.69;;;24.43;86.54
55289;BME280;41154;45.394;5.734;2023-05-22T11:23:19;96724.31;;;24.47;84.69
55289;BME280;41154;45.394;5.734;2023-05-22T11:25:46;96715.78;;;24.36;88.98
55289;BME280;41154;45.394;5.734;2023-05-22T11:28:11;96719.41;;;23.87;90.81
55289;BME280;41154;45.394;5.734;2023-05-22T11:30:38;96701.75;;;24.25;90.53
55289;BME280;41154;45.394;5.734;2023-05-22T11:33:04;96702.44;;;24.34;89.60
55289;BME280;41154;45.394;5.734;2023-05-22T11:35:30;96702.97;;;25.41;85.86
55289;BME280;41154;45.394;5.734;2023-05-22T11:37:56;96696.22;;;24.78;86.90
55289;BME280;41154;45.394;5.734;2023-05-22T11:40:25;96704.75;;;25.05;83.63
55289;BME280;41154;45.394;5.734;2023-05-22T11:42:52;96703.47;;;25.30;84.89
55289;BME280;41154;45.394;5.734;2023-05-22T11:45:18;96697.78;;;25.23;88.45
55289;BME280;41154;45.394;5.734;2023-05-22T11:47:44;96698.16;;;25.22;84.15
55289;BME280;41154;45.394;5.734;2023-05-22T11:50:11;96704.97;;;24.55;86.20
55289;BME280;41154;45.394;5.734;2023-05-22T11:52:41;96703.19;;;23.69;89.16
55289;BME280;41154;45.394;5.734;2023-05-22T11:55:08;96702.97;;;23.87;90.42
55289;BME280;41154;45.394;5.734;2023-05-22T11:57:34;96705.41;;;23.18;93.85
55289;BME280;41154;45.394;5.734;2023-05-22T12:00:01;96698.50;;;23.33;95.01
55289;BME280;41154;45.394;5.734;2023-05-22T12:02:37;96693.81;;;23.83;91.24
55289;BME280;41154;45.394;5.734;2023-05-22T12:05:03;96691.03;;;23.09;94.26
55289;BME280;41154;45.394;5.734;2023-05-22T12:07:30;96690.38;;;23.12;95.08
55289;BME280;41154;45.394;5.734;2023-05-22T12:09:56;96685.38;;;23.76;92.57
55289;BME280;41154;45.394;5.734;2023-05-22T12:12:22;96683.41;;;23.76;90.17
55289;BME280;41154;45.394;5.734;2023-05-22T12:14:48;96674.44;;;24.29;93.93
55289;BME280;41154;45.394;5.734;2023-05-22T12:17:16;96676.19;;;24.62;87.31
55289;BME280;41154;45.394;5.734;2023-05-22T12:19:43;96667.31;;;25.12;91.18
55289;BME280;41154;45.394;5.734;2023-05-22T12:22:10;96673.59;;;25.13;84.59
55289;BME280;41154;45.394;5.734;2023-05-22T12:24:39;96673.41;;;23.68;89.27
55289;BME280;41154;45.394;5.734;2023-05-22T12:27:09;96663.44;;;24.00;89.19
55289;BME280;41154;45.394;5.734;2023-05-22T12:29:35;96668.84;;;23.60;92.98
55289;BME280;41154;45.394;5.734;2023-05-22T12:32:03;96672.69;;;23.83;92.49
55289;BME280;41154;45.394;5.734;2023-05-22T12:34:33;96667.22;;;23.22;93.57
55289;BME280;41154;45.394;5.734;2023-05-22T12:36:59;96663.56;;;23.79;93.25
55289;BME280;41154;45.394;5.734;2023-05-22T12:39:27;96664.16;;;23.48;93.48
55289;BME280;41154;45.394;5.734;2023-05-22T12:41:52;96658.00;;;23.88;97.84
55289;BME280;41154;45.394;5.734;2023-05-22T12:44:18;96658.22;;;23.83;93.35
55289;BME280;41154;45.394;5.734;2023-05-22T12:46:44;96661.16;;;24.02;91.88
55289;BME280;41154;45.394;5.734;2023-05-22T12:49:10;96658.47;;;24.87;88.32
55289;BME280;41154;45.394;5.734;2023-05-22T12:51:35;96649.81;;;24.57;89.05
55289;BME280;41154;45.394;5.734;2023-05-22T12:54:02;96645.84;;;25.82;87.30
55289;BME280;41154;45.394;5.734;2023-05-22T12:56:29;96641.88;;;25.79;84.79
55289;BME280;41154;45.394;5.734;2023-05-22T12:58:58;96648.97;;;25.64;85.96
55289;BME280;41154;45.394;5.734;2023-05-22T13:01:24;96644.22;;;25.97;81.35
55289;BME280;41154;45.394;5.734;2023-05-22T13:03:51;96646.06;;;25.93;84.57
55289;BME280;41154;45.394;5.734;2023-05-22T13:06:17;96643.50;;;26.78;78.61
55289;BME280;41154;45.394;5.734;2023-05-22T13:08:43;96640.66;;;26.71;79.66
55289;BME280;41154;45.394;5.734;2023-05-22T13:11:10;96634.56;;;26.23;82.80
55289;BME280;41154;45.394;5.734;2023-05-22T13:13:35;96625.53;;;26.03;84.40
55289;BME280;41154;45.394;5.734;2023-05-22T13:16:01;96634.19;;;24.17;93.16
55289;BME280;41154;45.394;5.734;2023-05-22T13:18:27;96622.19;;;24.50;90.60
55289;BME280;41154;45.394;5.734;2023-05-22T13:20:53;96627.75;;;24.25;92.09